sensor_id;sensor_type;location;lat;lon;timestamp;P1;durP1;ratioP1;P2;durP2;ratioP2
39176;SDS011;24904;52.208;21.192;2022-10-17T00:00:10;21.70;;;16.00;;
39176;SDS011;24904;52.208;21.192;2022-10-17T00:05:14;26.90;;;16.80;;
39176;SDS011;24904;52.208;21.192;2022-10-17T00:10:17;24.50;;;16.50;;
39176;SDS011;24904;52.208;21.192;2022-10-17T00:15:21;30.10;;;16.80;;
39176;SDS011;24904;52.208;21.192;2022-10-17T00:20:24;25.20;;;16.90;;
39176;SDS011;24904;52.208;21.192;2022-10-17T00:25:28;23.00;;;16.20;;
39176;SDS011;24904;52.208;21.192;2022-10-17T00:30:31;26.00;;;18.10;;
39176;SDS011;24904;52.208;21.192;2022-10-17T00:35:34;34.80;;;20.70;;
39176;SDS011;24904;52.208;21.192;2022-10-17T00:40:37;33.60;;;20.70;;
39176;SDS011;24904;52.208;21.192;2022-10-17T00:45:40;29.10;;;18.80;;
39176;SDS011;24904;52.208;21.192;2022-10-17T00:50:46;27.80;;;18.40;;
39176;SDS011;24904;52.208;21.192;2022-10-17T00:55:51;28.80;;;18.40;;
39176;SDS011;24904;52.208;21.192;2022-10-17T01:00:54;31.00;;;17.10;;
39176;SDS011;24904;52.208;21.192;2022-10-17T01:05:57;27.50;;;17.60;;
39176;SDS011;24904;52.208;21.192;2022-10-17T01:11:04;26.80;;;17.20;;
39176;SDS011;24904;52.208;21.192;2022-10-17T01:16:15;26.00;;;16.90;;
39176;SDS011;24904;52.208;21.192;2022-10-17T01:21:30;26.20;;;17.80;;
39176;SDS011;24904;52.208;21.192;2022-10-17T01:32:39;26.00;;;15.80;;
39176;SDS011;24904;52.208;21.192;2022-10-17T01:37:49;25.10;;;18.60;;
39176;SDS011;24904;52.208;21.192;2022-10-17T01:43:01;25.90;;;18.40;;
39176;SDS011;24904;52.208;21.192;2022-10-17T01:48:09;28.70;;;19.60;;
39176;SDS011;24904;52.208;21.192;2022-10-17T01:59:37;27.60;;;19.40;;
39176;SDS011;24904;52.208;21.192;2022-10-17T02:13:32;25.70;;;18.60;;
39176;SDS011;24904;52.208;21.192;2022-10-17T02:18:46;28.00;;;19.10;;
39176;SDS011;24904;52.208;21.192;2022-10-17T02:24:04;28.00;;;19.10;;
39176;SDS011;24904;52.208;21.192;2022-10-17T02:29:54;24.00;;;17.60;;
39176;SDS011;24904;52.208;21.192;2022-10-17T02:35:02;25.60;;;18.20;;
39176;SDS011;24904;52.208;21.192;2022-10-17T02:40:10;26.60;;;18.50;;
39176;SDS011;24904;52.208;21.192;2022-10-17T02:45:16;25.60;;;18.40;;
39176;SDS011;24904;52.208;21.192;2022-10-17T02:50:21;28.70;;;19.50;;
39176;SDS011;24904;52.208;21.192;2022-10-17T02:55:29;30.50;;;19.90;;
39176;SDS011;24904;52.208;21.192;2022-10-17T03:00:35;29.50;;;18.90;;
39176;SDS011;24904;52.208;21.192;2022-10-17T03:05:41;35.50;;;22.00;;
39176;SDS011;24904;52.208;21.192;2022-10-17T03:10:44;36.40;;;21.50;;
39176;SDS011;24904;52.208;21.192;2022-10-17T03:15:48;34.90;;;21.00;;
39176;SDS011;24904;52.208;21.192;2022-10-17T03:20:51;33.20;;;22.80;;
39176;SDS011;24904;52.208;21.192;2022-10-17T03:25:54;34.40;;;22.00;;
39176;SDS011;24904;52.208;21.192;2022-10-17T03:30:57;32.00;;;21.50;;
39176;SDS011;24904;52.208;21.192;2022-10-17T03:36:04;36.80;;;22.20;;
39176;SDS011;24904;52.208;21.192;2022-10-17T03:41:08;34.00;;;21.80;;
39176;SDS011;24904;52.208;21.192;2022-10-17T03:46:12;31.80;;;21.50;;
39176;SDS011;24904;52.208;21.192;2022-10-17T03:51:16;34.00;;;20.90;;
39176;SDS011;24904;52.208;21.192;2022-10-17T03:56:23;30.00;;;20.70;;
39176;SDS011;24904;52.208;21.192;2022-10-17T04:01:36;32.70;;;21.00;;
39176;SDS011;24904;52.208;21.192;2022-10-17T04:06:39;31.50;;;21.80;;
39176;SDS011;24904;52.208;21.192;2022-10-17T04:11:45;30.50;;;21.50;;
39176;SDS011;24904;52.208;21.192;2022-10-17T04:16:48;29.80;;;22.00;;
39176;SDS011;24904;52.208;21.192;2022-10-17T04:21:54;27.60;;;20.60;;
39176;SDS011;24904;52.208;21.192;2022-10-17T04:26:58;32.00;;;21.80;;
39176;SDS011;24904;52.208;21.192;2022-10-17T04:32:03;35.40;;;22.70;;
39176;SDS011;24904;52.208;21.192;2022-10-17T04:37:16;32.80;;;23.50;;
39176;SDS011;24904;52.208;21.192;2022-10-17T04:42:21;33.80;;;22.10;;
39176;SDS011;24904;52.208;21.192;2022-10-17T04:47:25;30.40;;;21.30;;
39176;SDS011;24904;52.208;21.192;2022-10-17T04:52:29;31.90;;;22.70;;
39176;SDS011;24904;52.208;21.192;2022-10-17T04:57:33;30.40;;;21.40;;
39176;SDS011;24904;52.208;21.192;2022-10-17T05:02:50;31.80;;;21.60;;
39176;SDS011;24904;52.208;21.192;2022-10-17T05:07:54;32.60;;;22.50;;
39176;SDS011;24904;52.208;21.192;2022-10-17T05:13:01;29.30;;;22.20;;
39176;SDS011;24904;52.208;21.192;2022-10-17T05:18:05;41.20;;;22.80;;
39176;SDS011;24904;52.208;21.192;2022-10-17T05:23:09;33.80;;;25.20;;
39176;SDS011;24904;52.208;21.192;2022-10-17T05:28:14;32.00;;;22.40;;
39176;SDS011;24904;52.208;21.192;2022-10-17T05:33:18;32.50;;;21.60;;
39176;SDS011;24904;52.208;21.192;2022-10-17T05:38:21;39.20;;;25.00;;
39176;SDS011;24904;52.208;21.192;2022-10-17T05:43:24;33.20;;;24.80;;
39176;SDS011;24904;52.208;21.192;2022-10-17T05:48:28;36.70;;;24.90;;
39176;SDS011;24904;52.208;21.192;2022-10-17T05:53:31;34.30;;;24.10;;
39176;SDS011;24904;52.208;21.192;2022-10-17T05:58:39;37.20;;;26.10;;
39176;SDS011;24904;52.208;21.192;2022-10-17T06:08:49;32.70;;;22.60;;
39176;SDS011;24904;52.208;21.192;2022-10-17T06:13:58;36.50;;;24.30;;
39176;SDS011;24904;52.208;21.192;2022-10-17T06:19:03;37.10;;;25.80;;
39176;SDS011;24904;52.208;21.192;2022-10-17T06:24:06;31.30;;;22.80;;
39176;SDS011;24904;52.208;21.192;2022-10-17T06:29:11;40.40;;;26.60;;
39176;SDS011;24904;52.208;21.192;2022-10-17T06:34:19;34.30;;;25.80;;
39176;SDS011;24904;52.208;21.192;2022-10-17T06:39:23;42.50;;;25.90;;
39176;SDS011;24904;52.208;21.192;2022-10-17T06:44:36;39.80;;;27.90;;
39176;SDS011;24904;52.208;21.192;2022-10-17T06:49:59;35.60;;;26.50;;
39176;SDS011;24904;52.208;21.192;2022-10-17T06:55:11;40.20;;;26.60;;
39176;SDS011;24904;52.208;21.192;2022-10-17T07:00:22;35.00;;;25.60;;
39176;SDS011;24904;52.208;21.192;2022-10-17T07:05:28;36.60;;;24.40;;
39176;SDS011;24904;52.208;21.192;2022-10-17T07:10:31;35.10;;;25.40;;
39176;SDS011;24904;52.208;21.192;2022-10-17T07:15:39;34.90;;;24.90;;
39176;SDS011;24904;52.208;21.192;2022-10-17T07:20:50;34.40;;;25.00;;
39176;SDS011;24904;52.208;21.192;2022-10-17T07:25:58;35.60;;;23.30;;
39176;SDS011;24904;52.208;21.192;2022-10-17T07:31:03;36.20;;;23.70;;
39176;SDS011;24904;52.208;21.192;2022-10-17T07:36:08;28.80;;;19.50;;
39176;SDS011;24904;52.208;21.192;2022-10-17T07:41:11;30.10;;;21.40;;
39176;SDS011;24904;52.208;21.192;2022-10-17T07:46:15;28.50;;;21.60;;
39176;SDS011;24904;52.208;21.192;2022-10-17T07:51:19;27.10;;;20.50;;
39176;SDS011;24904;52.208;21.192;2022-10-17T07:56:22;32.80;;;21.90;;
39176;SDS011;24904;52.208;21.192;2022-10-17T08:01:25;31.50;;;21.90;;
39176;SDS011;24904;52.208;21.192;2022-10-17T08:06:28;30.10;;;20.20;;
39176;SDS011;24904;52.208;21.192;2022-10-17T08:11:31;34.40;;;19.40;;
39176;SDS011;24904;52.208;21.192;2022-10-17T08:16:36;31.60;;;20.70;;
39176;SDS011;24904;52.208;21.192;2022-10-17T08:21:39;28.40;;;18.90;;
39176;SDS011;24904;52.208;21.192;2022-10-17T08:26:44;32.20;;;19.30;;
39176;SDS011;24904;52.208;21.192;2022-10-17T08:31:48;27.50;;;19.90;;
39176;SDS011;24904;52.208;21.192;2022-10-17T08:36:51;26.00;;;18.60;;
39176;SDS011;24904;52.208;21.192;2022-10-17T08:41:57;29.40;;;19.10;;
39176;SDS011;24904;52.208;21.192;2022-10-17T08:47:08;28.90;;;18.30;;
39176;SDS011;24904;52.208;21.192;2022-10-17T08:52:15;30.60;;;18.50;;
39176;SDS011;24904;52.208;21.192;2022-10-17T08:57:24;30.90;;;18.00;;
39176;SDS011;24904;52.208;21.192;2022-10-17T09:02:33;23.00;;;17.50;;
39176;SDS011;24904;52.208;21.192;2022-10-17T09:07:46;27.80;;;17.80;;
39176;SDS011;24904;52.208;21.192;2022-10-17T09:12:57;28.70;;;18.10;;
39176;SDS011;24904;52.208;21.192;2022-10-17T09:18:11;24.50;;;17.30;;
39176;SDS011;24904;52.208;21.192;2022-10-17T09:23:19;27.40;;;17.80;;
39176;SDS011;24904;52.208;21.192;2022-10-17T09:28:26;25.10;;;17.10;;
39176;SDS011;24904;52.208;21.192;2022-10-17T09:33:33;25.10;;;16.20;;
39176;SDS011;24904;52.208;21.192;2022-10-17T09:38:40;24.00;;;17.20;;
39176;SDS011;24904;52.208;21.192;2022-10-17T09:43:45;23.10;;;16.40;;
39176;SDS011;24904;52.208;21.192;2022-10-17T09:48:49;22.20;;;16.60;;
39176;SDS011;24904;52.208;21.192;2022-10-17T09:53:58;26.60;;;15.30;;
39176;SDS011;24904;52.208;21.192;2022-10-17T09:59:04;20.70;;;16.10;;
39176;SDS011;24904;52.208;21.192;2022-10-17T10:04:12;25.80;;;15.50;;
39176;SDS011;24904;52.208;21.192;2022-10-17T10:09:20;23.20;;;17.30;;
39176;SDS011;24904;52.208;21.192;2022-10-17T10:14:29;33.30;;;15.40;;
39176;SDS011;24904;52.208;21.192;2022-10-17T10:19:36;24.10;;;14.40;;
39176;SDS011;24904;52.208;21.192;2022-10-17T10:24:41;26.10;;;14.00;;
39176;SDS011;24904;52.208;21.192;2022-10-17T10:29:48;17.80;;;14.20;;
39176;SDS011;24904;52.208;21.192;2022-10-17T10:34:53;22.40;;;14.00;;
39176;SDS011;24904;52.208;21.192;2022-10-17T10:40:00;20.00;;;14.00;;
39176;SDS011;24904;52.208;21.192;2022-10-17T10:45:14;18.70;;;13.20;;
39176;SDS011;24904;52.208;21.192;2022-10-17T10:50:25;21.80;;;14.80;;
39176;SDS011;24904;52.208;21.192;2022-10-17T11:07:37;22.40;;;13.70;;
39176;SDS011;24904;52.208;21.192;2022-10-17T11:12:45;19.30;;;12.50;;
39176;SDS011;24904;52.208;21.192;2022-10-17T11:17:56;25.00;;;13.40;;
39176;SDS011;24904;52.208;21.192;2022-10-17T11:23:01;19.40;;;13.10;;
39176;SDS011;24904;52.208;21.192;2022-10-17T11:28:20;23.30;;;14.50;;
39176;SDS011;24904;52.208;21.192;2022-10-17T11:33:26;19.30;;;13.90;;
39176;SDS011;24904;52.208;21.192;2022-10-17T11:38:41;20.20;;;13.20;;
39176;SDS011;24904;52.208;21.192;2022-10-17T11:43:49;19.30;;;13.70;;
39176;SDS011;24904;52.208;21.192;2022-10-17T11:48:57;19.80;;;13.00;;
39176;SDS011;24904;52.208;21.192;2022-10-17T11:54:08;22.50;;;14.60;;
39176;SDS011;24904;52.208;21.192;2022-10-17T11:59:33;25.30;;;14.30;;
39176;SDS011;24904;52.208;21.192;2022-10-17T12:04:53;16.20;;;13.00;;
39176;SDS011;24904;52.208;21.192;2022-10-17T12:10:04;17.80;;;12.40;;
39176;SDS011;24904;52.208;21.192;2022-10-17T12:15:29;16.90;;;11.80;;
39176;SDS011;24904;52.208;21.192;2022-10-17T12:20:35;17.50;;;13.60;;
39176;SDS011;24904;52.208;21.192;2022-10-17T12:25:47;19.70;;;13.00;;
39176;SDS011;24904;52.208;21.192;2022-10-17T12:30:56;24.60;;;12.90;;
39176;SDS011;24904;52.208;21.192;2022-10-17T12:47:50;16.30;;;12.90;;
39176;SDS011;24904;52.208;21.192;2022-10-17T12:52:56;20.60;;;12.20;;
39176;SDS011;24904;52.208;21.192;2022-10-17T12:58:10;19.20;;;11.30;;
39176;SDS011;24904;52.208;21.192;2022-10-17T13:03:17;14.00;;;11.30;;
39176;SDS011;24904;52.208;21.192;2022-10-17T13:08:24;19.80;;;12.30;;
39176;SDS011;24904;52.208;21.192;2022-10-17T13:13:34;20.70;;;11.40;;
39176;SDS011;24904;52.208;21.192;2022-10-17T13:18:39;16.00;;;11.90;;
39176;SDS011;24904;52.208;21.192;2022-10-17T13:23:42;18.20;;;11.90;;
39176;SDS011;24904;52.208;21.192;2022-10-17T13:29:00;18.00;;;12.40;;
39176;SDS011;24904;52.208;21.192;2022-10-17T13:34:05;18.60;;;11.60;;
39176;SDS011;24904;52.208;21.192;2022-10-17T13:39:18;18.40;;;11.40;;
39176;SDS011;24904;52.208;21.192;2022-10-17T13:44:24;17.60;;;12.60;;
39176;SDS011;24904;52.208;21.192;2022-10-17T13:49:30;21.40;;;12.50;;
39176;SDS011;24904;52.208;21.192;2022-10-17T13:54:36;17.00;;;12.20;;
39176;SDS011;24904;52.208;21.192;2022-10-17T13:59:40;23.00;;;12.60;;
39176;SDS011;24904;52.208;21.192;2022-10-17T14:04:48;17.70;;;11.60;;
39176;SDS011;24904;52.208;21.192;2022-10-17T14:10:02;17.20;;;12.00;;
39176;SDS011;24904;52.208;21.192;2022-10-17T14:15:08;21.00;;;13.30;;
39176;SDS011;24904;52.208;21.192;2022-10-17T14:20:18;21.70;;;11.80;;
39176;SDS011;24904;52.208;21.192;2022-10-17T14:25:27;16.80;;;12.30;;
39176;SDS011;24904;52.208;21.192;2022-10-17T14:30:32;18.20;;;11.90;;
39176;SDS011;24904;52.208;21.192;2022-10-17T14:35:37;19.80;;;13.10;;
39176;SDS011;24904;52.208;21.192;2022-10-17T14:40:47;18.40;;;13.00;;
39176;SDS011;24904;52.208;21.192;2022-10-17T14:45:51;23.10;;;14.10;;
39176;SDS011;24904;52.208;21.192;2022-10-17T14:51:07;22.30;;;13.90;;
39176;SDS011;24904;52.208;21.192;2022-10-17T14:56:22;15.70;;;11.80;;
39176;SDS011;24904;52.208;21.192;2022-10-17T15:01:27;21.80;;;13.20;;
39176;SDS011;24904;52.208;21.192;2022-10-17T15:06:30;22.50;;;14.60;;
39176;SDS011;24904;52.208;21.192;2022-10-17T15:11:34;19.80;;;13.50;;
39176;SDS011;24904;52.208;21.192;2022-10-17T15:16:37;22.80;;;14.70;;
39176;SDS011;24904;52.208;21.192;2022-10-17T15:21:40;24.90;;;14.80;;
39176;SDS011;24904;52.208;21.192;2022-10-17T15:26:44;24.10;;;14.30;;
39176;SDS011;24904;52.208;21.192;2022-10-17T15:31:47;29.00;;;16.80;;
39176;SDS011;24904;52.208;21.192;2022-10-17T15:36:50;24.80;;;15.20;;
39176;SDS011;24904;52.208;21.192;2022-10-17T15:41:54;26.20;;;16.00;;
39176;SDS011;24904;52.208;21.192;2022-10-17T15:46:57;29.40;;;15.10;;
39176;SDS011;24904;52.208;21.192;2022-10-17T15:52:00;26.00;;;14.70;;
39176;SDS011;24904;52.208;21.192;2022-10-17T15:57:03;27.50;;;15.10;;
39176;SDS011;24904;52.208;21.192;2022-10-17T16:02:09;20.50;;;15.10;;
39176;SDS011;24904;52.208;21.192;2022-10-17T16:07:14;21.90;;;15.10;;
39176;SDS011;24904;52.208;21.192;2022-10-17T16:12:21;25.90;;;15.20;;
39176;SDS011;24904;52.208;21.192;2022-10-17T16:17:28;26.00;;;16.00;;
39176;SDS011;24904;52.208;21.192;2022-10-17T16:22:32;28.60;;;16.40;;
39176;SDS011;24904;52.208;21.192;2022-10-17T16:27:36;25.90;;;16.60;;
39176;SDS011;24904;52.208;21.192;2022-10-17T16:32:39;29.30;;;17.90;;
39176;SDS011;24904;52.208;21.192;2022-10-17T16:37:42;31.90;;;17.70;;
39176;SDS011;24904;52.208;21.192;2022-10-17T16:42:46;27.10;;;19.20;;
39176;SDS011;24904;52.208;21.192;2022-10-17T16:47:49;30.10;;;20.20;;
39176;SDS011;24904;52.208;21.192;2022-10-17T16:52:53;30.10;;;19.30;;
39176;SDS011;24904;52.208;21.192;2022-10-17T16:57:56;34.80;;;20.20;;
39176;SDS011;24904;52.208;21.192;2022-10-17T17:03:00;28.10;;;19.30;;
39176;SDS011;24904;52.208;21.192;2022-10-17T17:08:03;41.30;;;19.90;;
39176;SDS011;24904;52.208;21.192;2022-10-17T17:13:06;33.00;;;21.00;;
39176;SDS011;24904;52.208;21.192;2022-10-17T17:18:09;31.40;;;20.80;;
39176;SDS011;24904;52.208;21.192;2022-10-17T17:23:14;39.00;;;24.10;;
39176;SDS011;24904;52.208;21.192;2022-10-17T17:28:17;36.80;;;22.80;;
39176;SDS011;24904;52.208;21.192;2022-10-17T17:33:20;34.50;;;22.70;;
39176;SDS011;24904;52.208;21.192;2022-10-17T17:38:23;30.60;;;21.80;;
39176;SDS011;24904;52.208;21.192;2022-10-17T17:43:28;36.90;;;21.40;;
39176;SDS011;24904;52.208;21.192;2022-10-17T17:48:31;36.60;;;23.20;;
39176;SDS011;24904;52.208;21.192;2022-10-17T17:53:37;38.70;;;22.10;;
39176;SDS011;24904;52.208;21.192;2022-10-17T17:58:40;37.20;;;22.40;;
39176;SDS011;24904;52.208;21.192;2022-10-17T18:03:45;38.80;;;24.00;;
39176;SDS011;24904;52.208;21.192;2022-10-17T18:08:50;38.00;;;24.60;;
39176;SDS011;24904;52.208;21.192;2022-10-17T18:13:56;36.70;;;24.10;;
39176;SDS011;24904;52.208;21.192;2022-10-17T18:19:01;37.40;;;24.40;;
39176;SDS011;24904;52.208;21.192;2022-10-17T18:24:06;39.40;;;26.60;;
39176;SDS011;24904;52.208;21.192;2022-10-17T18:29:09;37.20;;;23.30;;
39176;SDS011;24904;52.208;21.192;2022-10-17T18:34:12;38.00;;;23.50;;
39176;SDS011;24904;52.208;21.192;2022-10-17T18:39:16;36.10;;;23.20;;
39176;SDS011;24904;52.208;21.192;2022-10-17T18:44:19;39.00;;;24.20;;
39176;SDS011;24904;52.208;21.192;2022-10-17T18:49:23;39.60;;;23.50;;
39176;SDS011;24904;52.208;21.192;2022-10-17T18:54:26;40.70;;;24.80;;
39176;SDS011;24904;52.208;21.192;2022-10-17T18:59:32;35.20;;;23.40;;
39176;SDS011;24904;52.208;21.192;2022-10-17T19:04:35;37.70;;;21.80;;
39176;SDS011;24904;52.208;21.192;2022-10-17T19:09:38;34.70;;;22.00;;
39176;SDS011;24904;52.208;21.192;2022-10-17T19:14:42;37.60;;;21.50;;
39176;SDS011;24904;52.208;21.192;2022-10-17T19:19:45;29.90;;;19.30;;
39176;SDS011;24904;52.208;21.192;2022-10-17T19:24:50;32.10;;;22.00;;
39176;SDS011;24904;52.208;21.192;2022-10-17T19:29:53;43.60;;;22.70;;
39176;SDS011;24904;52.208;21.192;2022-10-17T19:34:57;30.60;;;21.40;;
39176;SDS011;24904;52.208;21.192;2022-10-17T19:40:03;33.70;;;20.60;;
39176;SDS011;24904;52.208;21.192;2022-10-17T19:45:08;32.60;;;20.50;;
39176;SDS011;24904;52.208;21.192;2022-10-17T19:50:12;30.90;;;19.30;;
39176;SDS011;24904;52.208;21.192;2022-10-17T19:55:15;31.20;;;20.50;;
39176;SDS011;24904;52.208;21.192;2022-10-17T20:00:19;30.80;;;20.20;;
39176;SDS011;24904;52.208;21.192;2022-10-17T20:05:22;29.30;;;18.60;;
39176;SDS011;24904;52.208;21.192;2022-10-17T20:10:26;32.20;;;19.40;;
39176;SDS011;24904;52.208;21.192;2022-10-17T20:15:29;33.10;;;20.40;;
39176;SDS011;24904;52.208;21.192;2022-10-17T20:20:33;33.00;;;18.10;;
39176;SDS011;24904;52.208;21.192;2022-10-17T20:25:37;27.40;;;18.60;;
39176;SDS011;24904;52.208;21.192;2022-10-17T20:30:42;27.90;;;18.90;;
39176;SDS011;24904;52.208;21.192;2022-10-17T20:35:46;30.60;;;18.30;;
39176;SDS011;24904;52.208;21.192;2022-10-17T20:40:50;31.20;;;19.50;;
39176;SDS011;24904;52.208;21.192;2022-10-17T20:45:53;32.10;;;20.20;;
39176;SDS011;24904;52.208;21.192;2022-10-17T20:50:56;28.60;;;19.10;;
39176;SDS011;24904;52.208;21.192;2022-10-17T20:56:00;30.50;;;17.60;;
39176;SDS011;24904;52.208;21.192;2022-10-17T21:01:07;27.60;;;18.80;;
39176;SDS011;24904;52.208;21.192;2022-10-17T21:06:11;28.90;;;17.90;;
39176;SDS011;24904;52.208;21.192;2022-10-17T21:11:16;26.60;;;18.00;;
39176;SDS011;24904;52.208;21.192;2022-10-17T21:16:20;27.60;;;17.80;;
39176;SDS011;24904;52.208;21.192;2022-10-17T21:21:24;25.60;;;17.10;;
39176;SDS011;24904;52.208;21.192;2022-10-17T21:26:31;27.40;;;17.70;;
39176;SDS011;24904;52.208;21.192;2022-10-17T21:31:36;24.90;;;16.20;;
39176;SDS011;24904;52.208;21.192;2022-10-17T21:36:41;32.60;;;18.70;;
39176;SDS011;24904;52.208;21.192;2022-10-17T21:41:44;28.20;;;18.50;;
39176;SDS011;24904;52.208;21.192;2022-10-17T21:46:47;27.40;;;17.00;;
39176;SDS011;24904;52.208;21.192;2022-10-17T21:51:51;28.90;;;19.50;;
39176;SDS011;24904;52.208;21.192;2022-10-17T21:56:55;25.70;;;17.80;;
39176;SDS011;24904;52.208;21.192;2022-10-17T22:02:00;25.80;;;17.60;;
39176;SDS011;24904;52.208;21.192;2022-10-17T22:07:03;31.30;;;18.30;;
39176;SDS011;24904;52.208;21.192;2022-10-17T22:12:08;32.90;;;19.10;;
39176;SDS011;24904;52.208;21.192;2022-10-17T22:17:13;27.80;;;17.80;;
39176;SDS011;24904;52.208;21.192;2022-10-17T22:22:18;30.00;;;18.90;;
39176;SDS011;24904;52.208;21.192;2022-10-17T22:27:21;27.10;;;16.90;;
39176;SDS011;24904;52.208;21.192;2022-10-17T22:32:26;29.30;;;17.80;;
39176;SDS011;24904;52.208;21.192;2022-10-17T22:37:30;30.40;;;18.30;;
39176;SDS011;24904;52.208;21.192;2022-10-17T22:42:34;26.90;;;16.50;;
39176;SDS011;24904;52.208;21.192;2022-10-17T22:47:39;30.50;;;16.70;;
39176;SDS011;24904;52.208;21.192;2022-10-17T22:52:43;27.00;;;17.70;;
39176;SDS011;24904;52.208;21.192;2022-10-17T23:07:09;26.00;;;16.90;;
39176;SDS011;24904;52.208;21.192;2022-10-17T23:12:14;28.90;;;17.10;;
39176;SDS011;24904;52.208;21.192;2022-10-17T23:17:17;26.10;;;19.20;;
39176;SDS011;24904;52.208;21.192;2022-10-17T23:22:20;34.60;;;18.80;;
39176;SDS011;24904;52.208;21.192;2022-10-17T23:27:23;25.80;;;17.90;;
39176;SDS011;24904;52.208;21.192;2022-10-17T23:32:26;26.80;;;18.90;;
39176;SDS011;24904;52.208;21.192;2022-10-17T23:37:29;26.80;;;18.30;;
39176;SDS011;24904;52.208;21.192;2022-10-17T23:49:51;27.40;;;18.40;;
39176;SDS011;24904;52.208;21.192;2022-10-17T23:54:54;40.30;;;19.30;;
39176;SDS011;24904;52.208;21.192;2022-10-17T23:59:58;37.20;;;19.40;;
